Weather at Oxford Municipal Airport

Public forecast

Using degrees Fahrenheit for public forecast. Weather courtesy of forecast.io.

Closest aviation weather report (METAR) to Oxford Municipal Airport

Closest report is Strother Field, 6.6 nm (12.2 km) SSE. Retrieved 2020/09/28 03:54 UTC (8 minutes ago):

KWLD 280354Z AUTO 32005KT 10SM OVC100 13/09 A3008 RMK AO2 SLP181 T01280094

Closest aviation forecast (TAF) to Oxford Municipal Airport

Forecast is more than 12 hours old.

Closest forecast is Mc Connell Air Force Base, 22.8 nm (42.2 km) NNW. Retrieved 2020/09/27 10:09 UTC (18 hours ago):

TAF TAF KIAB 271000Z 2710/2816 18010KT 9999 BKN007 QNH2970INS BECMG 2714/2715 09012G18KT 8000 -SHRA BKN015 QNH2975INS BECMG 2719/2720 02015G25KT 8000 -SHRA VCTS BKN020CB QNH2982INS TEMPO 2720/2723 8000 -TSRA OVC015CB BECMG 2723/2724 36010KT 9999 NSW BKN100 QNH2993INS TX21/2718Z TN19/2711Z LAST NO AMDS AFT 2710 NEXT 2810